Mount Holly, Vermont
Current Conditions -  °F | °C
As of 4:55 AM on Sunday 28 Dec 2014 (Local Time) from KRUT Reporting Station
Overcast Overcast  
Wind Chill: 45°   Ceiling: 2500
Heat Index: 45°   Visibility: 9mi
Dew Point: 39°   Wind: 3mph
Humidity: 81%   Direction: 160°SSE
Pressure: 29.81"   Gusts: NA
Location:  43.45°N, 72.83°W
Report Text: KRUT 280955Z 16003KT 9SM FEW017 BKN025 OVC060 07/04 A2981 RMK AO1 P0010
Loading
Personal Weather Stations






























Interactive Weather Map New forecast layout! Learn more

10-Day Weather Forecast

Advertisements
Track Severe Weather on mobile